Time;durP1;ratioP1;P1;durP2;ratioP2;P2;SDS_P1;SDS_P2;PMS_P1;PMS_P2;Temp;Humidity;BMP_temperature;BMP_pressure;BME280_temperature;BME280_humidity;BME280_pressure;Samples;Min_cycle;Max_cycle;Signal;HPM_P1;HPM_P2
2023/04/26 00:02:04;;;;;;;;;6.67;2.33;;;;;;;;5038357;28;45293;-84
2023/04/26 00:04:29;;;;;;;;;4.00;2.00;;;;;;;;5038723;28;45332;-84
2023/04/26 00:06:55;;;;;;;;;2.00;2.00;;;;;;;;5020871;28;45540;-84
2023/04/26 00:09:20;;;;;;;;;2.00;2.00;;;;;;;;5038278;28;46191;-84
2023/04/26 00:11:45;;;;;;;;;7.25;2.50;;;;;;;;5038294;28;45855;-83
2023/04/26 00:14:10;;;;;;;;;5.67;3.67;;;;;;;;5038698;28;45409;-84
2023/04/26 00:16:36;;;;;;;;;2.00;2.00;;;;;;;;5038330;28;45255;-85
2023/04/26 00:19:01;;;;;;;;;3.00;2.50;;;;;;;;5038302;28;46282;-84
2023/04/26 00:21:27;;;;;;;;;5.00;5.00;;;;;;;;5038473;28;45270;-84
2023/04/26 00:23:52;;;;;;;;;5.00;4.00;;;;;;;;5038371;28;45303;-84
2023/04/26 00:26:17;;;;;;;;;5.67;3.00;;;;;;;;5038447;28;45291;-84
2023/04/26 00:28:43;;;;;;;;;9.00;5.00;;;;;;;;5038008;28;45426;-84
2023/04/26 00:31:12;;;;;;;;;2.00;2.00;;;;;;;;5020034;28;45974;-84
2023/04/26 00:33:37;;;;;;;;;3.25;2.00;;;;;;;;5020537;28;45425;-85
2023/04/26 00:36:03;;;;;;;;;5.00;2.67;;;;;;;;5038169;28;45314;-85
2023/04/26 00:38:28;;;;;;;;;5.00;2.00;;;;;;;;5037888;28;46695;-84
2023/04/26 00:40:53;;;;;;;;;6.33;3.33;;;;;;;;5037991;28;45421;-83
2023/04/26 00:43:18;;;;;;;;;2.33;2.00;;;;;;;;5038134;28;45446;-83
2023/04/26 00:45:44;;;;;;;;;1.33;1.33;;;;;;;;5037754;28;45223;-84
2023/04/26 00:48:09;;;;;;;;;1.25;1.25;;;;;;;;5036636;28;45461;-83
2023/04/26 00:50:34;;;;;;;;;2.00;2.00;;;;;;;;5019736;28;45459;-83
2023/04/26 00:53:01;;;;;;;;;2.00;2.00;;;;;;;;5038179;28;45346;-83
2023/04/26 00:55:26;;;;;;;;;2.00;2.00;;;;;;;;5037804;28;45617;-83
2023/04/26 00:57:52;;;;;;;;;4.25;1.75;;;;;;;;5037973;28;45334;-85
2023/04/26 01:00:17;;;;;;;;;3.25;2.00;;;;;;;;5037569;28;45279;-84
2023/04/26 01:02:43;;;;;;;;;6.00;2.00;;;;;;;;5037918;28;45686;-84
2023/04/26 01:05:08;;;;;;;;;6.00;2.00;;;;;;;;5037767;28;45556;-83
2023/04/26 01:07:33;;;;;;;;;4.00;3.25;;;;;;;;5037472;28;46229;-83
2023/04/26 01:09:58;;;;;;;;;4.25;2.25;;;;;;;;5037549;28;45452;-84
2023/04/26 01:12:25;;;;;;;;;2.33;1.00;;;;;;;;5037153;28;45336;-84
2023/04/26 01:14:50;;;;;;;;;3.75;1.50;;;;;;;;5019238;28;45977;-83
2023/04/26 01:17:15;;;;;;;;;5.00;4.00;;;;;;;;5037433;28;45443;-84
2023/04/26 01:19:47;;;;;;;;;2.00;1.67;;;;;;;;5037505;28;45498;-84
2023/04/26 01:22:12;;;;;;;;;3.50;2.00;;;;;;;;5037718;28;45307;-84
2023/04/26 01:24:39;;;;;;;;;12.67;5.00;;;;;;;;5019777;28;45506;-83
2023/04/26 01:27:04;;;;;;;;;5.25;2.00;;;;;;;;5037207;28;45486;-84
2023/04/26 01:29:30;;;;;;;;;2.00;2.00;;;;;;;;5037031;28;45179;-83
2023/04/26 01:31:55;;;;;;;;;2.00;2.00;;;;;;;;5037566;28;45436;-84
2023/04/26 01:34:20;;;;;;;;;2.00;2.00;;;;;;;;5037114;28;45312;-84
2023/04/26 01:36:45;;;;;;;;;2.00;2.00;;;;;;;;5037154;28;46474;-84
2023/04/26 01:39:11;;;;;;;;;2.00;2.00;;;;;;;;5037159;28;45403;-84
2023/04/26 01:41:36;;;;;;;;;2.50;1.00;;;;;;;;5037079;28;45507;-84
2023/04/26 01:44:02;;;;;;;;;2.67;2.00;;;;;;;;5036870;28;45389;-83
2023/04/26 01:46:27;;;;;;;;;1.25;1.25;;;;;;;;5036749;28;45278;-83
2023/04/26 01:48:52;;;;;;;;;2.00;1.25;;;;;;;;5036926;28;45325;-84
2023/04/26 01:51:17;;;;;;;;;2.00;1.00;;;;;;;;5037087;28;45399;-84
2023/04/26 01:53:43;;;;;;;;;1.00;1.00;;;;;;;;5019270;28;45299;-84
2023/04/26 01:56:08;;;;;;;;;3.75;3.75;;;;;;;;5036673;28;46454;-84
2023/04/26 01:58:34;;;;;;;;;1.00;1.00;;;;;;;;5018762;28;45417;-85
2023/04/26 02:01:06;;;;;;;;;4.33;2.67;;;;;;;;5018924;28;45400;-84
2023/04/26 02:03:31;;;;;;;;;4.00;1.00;;;;;;;;5036805;28;45382;-84
2023/04/26 02:05:57;;;;;;;;;4.25;1.00;;;;;;;;5036667;28;45471;-84
2023/04/26 02:08:22;;;;;;;;;8.67;2.00;;;;;;;;5036689;28;45325;-85
2023/04/26 02:10:47;;;;;;;;;4.33;4.00;;;;;;;;5036908;28;45977;-84
2023/04/26 02:13:13;;;;;;;;;1.33;1.00;;;;;;;;5036051;28;45348;-84
2023/04/26 02:15:38;;;;;;;;;2.50;2.00;;;;;;;;5036338;28;45366;-85
2023/04/26 02:18:04;;;;;;;;;5.00;1.00;;;;;;;;5018700;28;45423;-84
2023/04/26 02:20:29;;;;;;;;;1.00;1.00;;;;;;;;5036785;28;45390;-83
2023/04/26 02:22:55;;;;;;;;;5.33;2.00;;;;;;;;5036598;28;45377;-85
2023/04/26 02:25:20;;;;;;;;;2.25;1.00;;;;;;;;5036323;28;47145;-84
2023/04/26 02:27:45;;;;;;;;;4.75;0.50;;;;;;;;5036111;28;45345;-83
2023/04/26 02:30:11;;;;;;;;;1.00;1.00;;;;;;;;5036541;28;45216;-83
2023/04/26 02:32:37;;;;;;;;;4.00;2.00;;;;;;;;5036413;28;45358;-83
2023/04/26 02:35:02;;;;;;;;;4.00;2.00;;;;;;;;5036304;28;46095;-85
2023/04/26 02:37:27;;;;;;;;;2.00;2.00;;;;;;;;5036457;28;45356;-85
2023/04/26 02:39:52;;;;;;;;;1.00;1.00;;;;;;;;5036391;28;45412;-83
2023/04/26 02:42:17;;;;;;;;;1.33;1.33;;;;;;;;5018000;28;45516;-84
2023/04/26 02:44:43;;;;;;;;;5.00;4.00;;;;;;;;5035816;28;46431;-83
2023/04/26 02:47:08;;;;;;;;;7.33;4.00;;;;;;;;5035794;28;45281;-84
2023/04/26 02:49:33;;;;;;;;;2.00;1.25;;;;;;;;5035985;28;45345;-84
2023/04/26 02:51:58;;;;;;;;;4.67;1.00;;;;;;;;5018364;28;45550;-84
2023/04/26 02:54:24;;;;;;;;;1.67;1.67;;;;;;;;5036180;28;45663;-84
2023/04/26 02:56:49;;;;;;;;;4.50;2.00;;;;;;;;5017798;28;46069;-85
2023/04/26 02:59:15;;;;;;;;;1.00;1.00;;;;;;;;5018375;28;45287;-85
2023/04/26 03:01:40;;;;;;;;;2.67;1.67;;;;;;;;5018205;28;45508;-84
2023/04/26 03:04:05;;;;;;;;;5.00;2.00;;;;;;;;5017756;28;47211;-85
2023/04/26 03:06:32;;;;;;;;;6.75;2.00;;;;;;;;5035839;28;45380;-84
2023/04/26 03:08:57;;;;;;;;;2.00;2.00;;;;;;;;5035683;28;45407;-84
2023/04/26 03:11:22;;;;;;;;;2.00;2.00;;;;;;;;5016984;28;45305;-84
2023/04/26 03:13:47;;;;;;;;;4.33;2.00;;;;;;;;5017921;28;47248;-85
2023/04/26 03:16:12;;;;;;;;;2.00;1.00;;;;;;;;5036110;28;45576;-84
2023/04/26 03:18:38;;;;;;;;;4.00;2.00;;;;;;;;5018211;28;45471;-82
2023/04/26 03:21:03;;;;;;;;;2.00;2.00;;;;;;;;5035811;28;45266;-84
2023/04/26 03:23:28;;;;;;;;;5.00;2.00;;;;;;;;5035695;28;46140;-83
2023/04/26 03:25:53;;;;;;;;;2.00;1.75;;;;;;;;5035145;28;45318;-81
2023/04/26 03:28:18;;;;;;;;;2.67;2.67;;;;;;;;5035618;28;45456;-84
2023/04/26 03:30:44;;;;;;;;;2.00;1.00;;;;;;;;5035472;28;45494;-82
2023/04/26 03:33:09;;;;;;;;;6.00;2.00;;;;;;;;5035332;28;45724;-81
2023/04/26 03:35:34;;;;;;;;;5.67;2.00;;;;;;;;5035298;28;45460;-80
2023/04/26 03:37:59;;;;;;;;;2.00;2.00;;;;;;;;5035730;28;45424;-80
2023/04/26 03:40:25;;;;;;;;;3.33;3.33;;;;;;;;5034983;28;45687;-80
2023/04/26 03:42:50;;;;;;;;;5.00;2.00;;;;;;;;5034985;28;46270;-82
2023/04/26 03:45:16;;;;;;;;;3.50;2.00;;;;;;;;5035452;28;45329;-80
2023/04/26 03:47:41;;;;;;;;;4.25;3.25;;;;;;;;5035239;28;45318;-81
2023/04/26 03:50:06;;;;;;;;;4.00;2.00;;;;;;;;5035212;28;45261;-82
2023/04/26 03:52:32;;;;;;;;;5.50;1.75;;;;;;;;5034976;28;46759;-81
2023/04/26 03:54:57;;;;;;;;;1.33;1.00;;;;;;;;5034806;28;45420;-81
2023/04/26 03:57:22;;;;;;;;;5.00;1.67;;;;;;;;5033053;28;45263;-82
2023/04/26 03:59:47;;;;;;;;;6.00;2.00;;;;;;;;5035069;28;45420;-82
2023/04/26 04:02:13;;;;;;;;;2.00;2.00;;;;;;;;5035098;28;46256;-81
2023/04/26 04:04:38;;;;;;;;;4.25;3.50;;;;;;;;5034902;28;45318;-82
2023/04/26 04:07:03;;;;;;;;;4.00;4.00;;;;;;;;5035353;28;45409;-82
2023/04/26 04:09:28;;;;;;;;;1.33;1.00;;;;;;;;5031149;28;45245;-82
2023/04/26 04:11:54;;;;;;;;;4.75;2.00;;;;;;;;5024172;28;45348;-83
2023/04/26 04:14:19;;;;;;;;;3.67;2.00;;;;;;;;5034727;28;45386;-82
2023/04/26 04:16:44;;;;;;;;;4.00;2.00;;;;;;;;5034752;28;45303;-81
2023/04/26 04:19:09;;;;;;;;;0.67;0.67;;;;;;;;5013114;28;45565;-82
2023/04/26 04:21:35;;;;;;;;;2.75;2.00;;;;;;;;5014840;28;46545;-81
2023/04/26 04:24:00;;;;;;;;;4.00;3.25;;;;;;;;5020953;28;45361;-81
2023/04/26 04:26:26;;;;;;;;;2.00;2.00;;;;;;;;5038677;28;45420;-81
2023/04/26 04:28:52;;;;;;;;;3.75;2.25;;;;;;;;5024196;28;45496;-81
2023/04/26 04:31:17;;;;;;;;;5.50;3.75;;;;;;;;5036847;28;45726;-81
2023/04/26 04:33:42;;;;;;;;;9.00;4.00;;;;;;;;5037805;28;45517;-81
2023/04/26 04:36:08;;;;;;;;;2.00;2.00;;;;;;;;5038199;28;45353;-81
2023/04/26 04:38:34;;;;;;;;;2.00;2.00;;;;;;;;5037667;28;45306;-80
2023/04/26 04:40:59;;;;;;;;;2.00;2.00;;;;;;;;5037846;28;46500;-83
2023/04/26 04:43:25;;;;;;;;;4.67;2.00;;;;;;;;5037925;28;45404;-82
2023/04/26 04:45:50;;;;;;;;;4.00;4.00;;;;;;;;5038049;28;45301;-81
2023/04/26 04:48:15;;;;;;;;;8.00;4.00;;;;;;;;5037855;28;45483;-82
2023/04/26 04:50:43;;;;;;;;;6.00;2.00;;;;;;;;5037771;28;46582;-81
2023/04/26 04:53:08;;;;;;;;;1.75;1.75;;;;;;;;5037532;28;45455;-81
2023/04/26 04:55:35;;;;;;;;;3.75;1.00;;;;;;;;5020043;28;45279;-81
2023/04/26 04:58:00;;;;;;;;;6.00;2.00;;;;;;;;5037862;28;45317;-82
2023/04/26 05:00:26;;;;;;;;;2.00;2.00;;;;;;;;5037584;28;47431;-82
2023/04/26 05:02:51;;;;;;;;;4.25;4.25;;;;;;;;5037435;28;45376;-80
2023/04/26 05:05:17;;;;;;;;;2.00;2.00;;;;;;;;5037710;28;45555;-80
2023/04/26 05:07:42;;;;;;;;;5.00;2.00;;;;;;;;5037328;28;45230;-81
2023/04/26 05:10:07;;;;;;;;;5.33;3.33;;;;;;;;5037403;28;46481;-80
2023/04/26 05:12:34;;;;;;;;;5.75;4.00;;;;;;;;5037234;28;45396;-81
2023/04/26 05:14:59;;;;;;;;;6.50;2.00;;;;;;;;5037623;28;45420;-81
2023/04/26 05:17:24;;;;;;;;;2.75;2.00;;;;;;;;5037520;28;45513;-81
2023/04/26 05:19:49;;;;;;;;;4.00;1.00;;;;;;;;5037154;28;47226;-81
2023/04/26 05:22:17;;;;;;;;;6.00;2.00;;;;;;;;5037206;28;45337;-81
2023/04/26 05:24:44;;;;;;;;;2.75;1.75;;;;;;;;5037247;28;45298;-81
2023/04/26 05:27:10;;;;;;;;;4.00;2.00;;;;;;;;5037409;28;45393;-80
2023/04/26 05:29:35;;;;;;;;;2.75;2.00;;;;;;;;5036916;28;46305;-82
2023/04/26 05:32:00;;;;;;;;;5.75;2.00;;;;;;;;5037340;28;45483;-81
2023/04/26 05:34:26;;;;;;;;;5.00;5.00;;;;;;;;5036554;28;45500;-81
2023/04/26 05:36:51;;;;;;;;;2.25;2.00;;;;;;;;5036865;28;45358;-81
2023/04/26 05:39:19;;;;;;;;;4.67;2.00;;;;;;;;5037184;28;45430;-80
2023/04/26 05:41:44;;;;;;;;;5.25;2.00;;;;;;;;5037043;28;45243;-81
2023/04/26 05:44:09;;;;;;;;;5.75;2.50;;;;;;;;5037141;28;45361;-81
2023/04/26 05:46:35;;;;;;;;;2.67;1.00;;;;;;;;5036890;28;45540;-81
2023/04/26 05:49:00;;;;;;;;;2.00;2.00;;;;;;;;5036690;28;45436;-81
2023/04/26 05:51:25;;;;;;;;;6.33;5.00;;;;;;;;5018834;28;45481;-81
2023/04/26 05:53:50;;;;;;;;;5.25;2.25;;;;;;;;5036800;28;45451;-81
2023/04/26 05:56:16;;;;;;;;;6.00;2.00;;;;;;;;5036933;28;45572;-81
2023/04/26 05:58:41;;;;;;;;;5.67;5.00;;;;;;;;5036461;28;47460;-81
2023/04/26 06:01:07;;;;;;;;;5.25;2.00;;;;;;;;5036603;28;45354;-81
2023/04/26 06:03:32;;;;;;;;;3.25;3.25;;;;;;;;5036758;28;45236;-81
2023/04/26 06:05:58;;;;;;;;;4.67;4.67;;;;;;;;5036474;28;45531;-81
2023/04/26 06:08:23;;;;;;;;;8.33;5.33;;;;;;;;5036424;28;46365;-81
2023/04/26 06:10:48;;;;;;;;;6.67;4.00;;;;;;;;5036505;28;45333;-80
2023/04/26 06:13:13;;;;;;;;;2.00;2.00;;;;;;;;5036499;28;45485;-81
2023/04/26 06:15:38;;;;;;;;;2.33;1.00;;;;;;;;5036712;28;45418;-80
2023/04/26 06:18:05;;;;;;;;;5.00;5.00;;;;;;;;5035977;28;45254;-81
2023/04/26 06:20:30;;;;;;;;;4.75;4.75;;;;;;;;5035906;28;45763;-81
2023/04/26 06:22:55;;;;;;;;;5.00;3.00;;;;;;;;5036620;28;45647;-81
2023/04/26 06:25:20;;;;;;;;;5.00;2.00;;;;;;;;5036431;28;45308;-81
2023/04/26 06:27:46;;;;;;;;;3.00;3.00;;;;;;;;5036216;28;47069;-81
2023/04/26 06:30:11;;;;;;;;;5.50;2.50;;;;;;;;5036009;28;45364;-81
2023/04/26 06:32:37;;;;;;;;;5.75;3.50;;;;;;;;5018318;28;45337;-81
2023/04/26 06:35:02;;;;;;;;;5.25;5.00;;;;;;;;5035929;28;45364;-81
2023/04/26 06:37:27;;;;;;;;;9.50;6.00;;;;;;;;5035969;28;46440;-80
2023/04/26 06:39:53;;;;;;;;;3.33;1.00;;;;;;;;5036085;28;45370;-81
2023/04/26 06:42:19;;;;;;;;;6.00;2.67;;;;;;;;5036353;28;45284;-81
2023/04/26 06:44:44;;;;;;;;;5.00;5.00;;;;;;;;5036244;28;45387;-84
2023/04/26 06:47:10;;;;;;;;;10.67;4.33;;;;;;;;5035010;28;46432;-82
2023/04/26 06:49:35;;;;;;;;;7.25;4.00;;;;;;;;5035641;28;45385;-81
2023/04/26 06:52:00;;;;;;;;;5.33;2.33;;;;;;;;5036028;28;45243;-82
2023/04/26 06:54:29;;;;;;;;;6.33;3.00;;;;;;;;5036118;28;45380;-82
2023/04/26 06:56:54;;;;;;;;;5.00;3.00;;;;;;;;5018180;28;47554;-89
2023/04/26 06:59:20;;;;;;;;;1.00;1.00;;;;;;;;5018355;28;46009;-84
2023/04/26 07:01:45;;;;;;;;;6.33;5.33;;;;;;;;5036181;28;45381;-81
2023/04/26 07:04:10;;;;;;;;;3.00;3.00;;;;;;;;5035998;28;45271;-85
2023/04/26 07:06:36;;;;;;;;;12.33;6.33;;;;;;;;5017984;28;48589;-83
2023/04/26 07:09:01;;;;;;;;;8.00;6.25;;;;;;;;5035571;28;45492;-82
2023/04/26 07:11:27;;;;;;;;;7.00;7.00;;;;;;;;5029402;28;45481;-82
2023/04/26 07:13:52;;;;;;;;;6.00;4.50;;;;;;;;5034419;28;45495;-81
2023/04/26 07:16:17;;;;;;;;;3.67;3.67;;;;;;;;5031441;28;46287;-81
2023/04/26 07:18:42;;;;;;;;;8.33;6.00;;;;;;;;5035163;28;45496;-82
2023/04/26 07:21:08;;;;;;;;;6.00;6.00;;;;;;;;5017673;28;45943;-84
2023/04/26 07:23:33;;;;;;;;;8.50;7.00;;;;;;;;5025758;28;45587;-81
2023/04/26 07:26:00;;;;;;;;;9.50;6.75;;;;;;;;5031856;28;45600;-82
2023/04/26 07:28:25;;;;;;;;;2.00;1.50;;;;;;;;5016385;28;45395;-81
2023/04/26 07:30:51;;;;;;;;;3.00;3.00;;;;;;;;5031558;28;45797;-82
2023/04/26 07:33:16;;;;;;;;;11.00;5.67;;;;;;;;5033925;28;45543;-82
2023/04/26 07:35:42;;;;;;;;;6.00;5.00;;;;;;;;5030981;28;46606;-81
2023/04/26 07:38:07;;;;;;;;;6.25;6.25;;;;;;;;5034933;28;45874;-82
2023/04/26 07:40:33;;;;;;;;;5.25;5.25;;;;;;;;5025777;28;45522;-81
2023/04/26 07:42:58;;;;;;;;;10.33;5.33;;;;;;;;5034841;28;45304;-81
2023/04/26 07:45:23;;;;;;;;;11.33;7.00;;;;;;;;5033583;28;46591;-81
2023/04/26 07:47:48;;;;;;;;;11.67;10.33;;;;;;;;5028058;28;45425;-81
2023/04/26 07:50:14;;;;;;;;;7.67;5.00;;;;;;;;5023342;28;45267;-82
2023/04/26 07:52:39;;;;;;;;;5.75;5.75;;;;;;;;5034693;28;45392;-82
2023/04/26 07:55:04;;;;;;;;;12.75;7.00;;;;;;;;5032674;28;46251;-82
2023/04/26 07:57:30;;;;;;;;;9.50;6.25;;;;;;;;5015209;28;45298;-83
2023/04/26 07:59:55;;;;;;;;;7.00;6.33;;;;;;;;5034235;28;45262;-81
2023/04/26 08:02:20;;;;;;;;;9.25;6.00;;;;;;;;5038337;28;45501;-83
2023/04/26 08:04:48;;;;;;;;;5.00;2.50;;;;;;;;5035223;28;46048;-82
2023/04/26 08:07:13;;;;;;;;;10.00;5.50;;;;;;;;5029488;28;45853;-81
2023/04/26 08:09:38;;;;;;;;;6.67;6.00;;;;;;;;5019067;28;45551;-82
2023/04/26 08:12:03;;;;;;;;;11.67;6.33;;;;;;;;5035836;28;45501;-82
2023/04/26 08:14:29;;;;;;;;;9.25;6.00;;;;;;;;5037539;28;46118;-81
2023/04/26 08:16:55;;;;;;;;;10.75;6.75;;;;;;;;5024169;28;45446;-80
2023/04/26 08:19:20;;;;;;;;;8.00;6.00;;;;;;;;5029143;28;45448;-82
2023/04/26 08:21:46;;;;;;;;;9.00;7.00;;;;;;;;5029840;28;45449;-81
2023/04/26 08:24:11;;;;;;;;;8.25;7.00;;;;;;;;5038255;28;46253;-80
2023/04/26 08:26:36;;;;;;;;;8.00;8.00;;;;;;;;5037028;28;45535;-81
2023/04/26 08:29:01;;;;;;;;;6.67;6.67;;;;;;;;5035516;28;45609;-82
2023/04/26 08:31:27;;;;;;;;;14.67;7.00;;;;;;;;5036357;28;45497;-82
2023/04/26 08:33:52;;;;;;;;;7.75;6.00;;;;;;;;5040719;28;45490;-82
2023/04/26 08:36:17;;;;;;;;;10.50;6.25;;;;;;;;5041079;28;45443;-81
2023/04/26 08:38:42;;;;;;;;;9.00;8.00;;;;;;;;5037097;28;45259;-81
2023/04/26 08:41:12;;;;;;;;;8.00;6.67;;;;;;;;5036268;28;45222;-82
2023/04/26 08:43:37;;;;;;;;;7.50;6.50;;;;;;;;5036121;28;47257;-82
2023/04/26 08:46:06;;;;;;;;;9.00;8.00;;;;;;;;5035905;28;45412;-82
2023/04/26 08:48:33;;;;;;;;;12.00;6.50;;;;;;;;5036647;28;45397;-82
2023/04/26 08:51:00;;;;;;;;;13.75;8.00;;;;;;;;5029051;28;45431;-81
2023/04/26 08:53:26;;;;;;;;;7.75;7.75;;;;;;;;5035971;28;47017;-82
2023/04/26 08:55:52;;;;;;;;;9.25;8.00;;;;;;;;5036667;28;45476;-82
2023/04/26 08:58:17;;;;;;;;;15.00;8.00;;;;;;;;5036302;28;45433;-82
2023/04/26 09:00:46;;;;;;;;;7.00;5.50;;;;;;;;5036506;28;45410;-82
2023/04/26 09:03:12;;;;;;;;;8.75;6.25;;;;;;;;5036492;28;47230;-82
2023/04/26 09:05:43;;;;;;;;;8.00;5.25;;;;;;;;5030789;28;45288;-82
2023/04/26 09:08:10;;;;;;;;;8.25;5.25;;;;;;;;5033521;28;45388;-81
2023/04/26 09:10:36;;;;;;;;;9.50;7.00;;;;;;;;5032588;28;45664;-80
2023/04/26 09:13:01;;;;;;;;;6.67;6.67;;;;;;;;5026612;28;45370;-80
2023/04/26 09:15:26;;;;;;;;;3.67;3.00;;;;;;;;5036112;28;45357;-81
2023/04/26 09:17:51;;;;;;;;;8.75;4.50;;;;;;;;5022304;28;45476;-80
2023/04/26 09:20:18;;;;;;;;;9.33;4.67;;;;;;;;5024107;28;45477;-79
2023/04/26 09:22:44;;;;;;;;;7.75;5.00;;;;;;;;5035496;28;47188;-81
2023/04/26 09:25:10;;;;;;;;;11.00;6.00;;;;;;;;5036054;28;45333;-81
2023/04/26 09:27:36;;;;;;;;;7.00;4.00;;;;;;;;5035497;28;45270;-81
2023/04/26 09:30:06;;;;;;;;;9.50;7.00;;;;;;;;5044602;28;45471;-80
2023/04/26 09:32:44;;;;;;;;;8.50;5.50;;;;;;;;5037697;28;45504;-81
2023/04/26 09:35:35;;;;;;;;;9.25;4.00;;;;;;;;5035264;28;45899;-80
2023/04/26 09:38:02;;;;;;;;;7.25;5.50;;;;;;;;5032411;28;45414;-86
2023/04/26 09:40:30;;;;;;;;;5.50;4.50;;;;;;;;5036556;28;45646;-88
2023/04/26 09:42:56;;;;;;;;;8.50;4.25;;;;;;;;5036231;28;45751;-87
2023/04/26 09:45:22;;;;;;;;;4.00;4.00;;;;;;;;5036185;28;45451;-88
2023/04/26 09:47:48;;;;;;;;;5.50;4.75;;;;;;;;5034300;28;47343;-87
2023/04/26 09:50:13;;;;;;;;;7.67;3.00;;;;;;;;5024022;28;45328;-86
2023/04/26 09:52:42;;;;;;;;;9.67;5.00;;;;;;;;5036905;28;46302;-86
2023/04/26 09:55:07;;;;;;;;;4.75;4.00;;;;;;;;5034402;28;45710;-88
2023/04/26 09:57:41;;;;;;;;;10.00;3.75;;;;;;;;5036793;28;45639;-86
2023/04/26 10:00:10;;;;;;;;;5.00;3.00;;;;;;;;5031603;28;45424;-84
2023/04/26 10:02:36;;;;;;;;;5.50;3.50;;;;;;;;5018369;28;48141;-86
2023/04/26 10:05:01;;;;;;;;;6.50;2.75;;;;;;;;5036251;28;45774;-85
2023/04/26 10:07:28;;;;;;;;;2.25;2.25;;;;;;;;5011778;28;45481;-85
2023/04/26 10:09:57;;;;;;;;;4.50;2.25;;;;;;;;5028494;28;45473;-85
2023/04/26 10:12:25;;;;;;;;;3.00;3.00;;;;;;;;5042959;28;47206;-85
2023/04/26 10:14:50;;;;;;;;;5.00;2.25;;;;;;;;5036785;28;45601;-85
2023/04/26 10:17:23;;;;;;;;;4.25;3.75;;;;;;;;5036245;28;45321;-85
2023/04/26 10:20:02;;;;;;;;;;;;;;;;;;;;;
2023/04/26 10:22:32;;;;;;;;;5.75;4.00;;;;;;;;5015255;28;75549;-88
2023/04/26 10:25:00;;;;;;;;;3.75;3.75;;;;;;;;5021201;28;45386;-87
2023/04/26 10:27:46;;;;;;;;;6.00;4.25;;;;;;;;5027110;28;45326;-87
2023/04/26 10:30:13;;;;;;;;;2.00;2.00;;;;;;;;5033003;28;45493;-87
2023/04/26 10:33:01;;;;;;;;;3.00;2.00;;;;;;;;5036129;28;46365;-90
2023/04/26 10:35:27;;;;;;;;;2.00;2.00;;;;;;;;5025955;28;45307;-90
2023/04/26 10:37:58;;;;;;;;;3.00;3.00;;;;;;;;5018552;28;45413;-88
2023/04/26 10:40:27;;;;;;;;;4.25;3.00;;;;;;;;5035096;28;45455;-89
2023/04/26 10:43:18;;;;;;;;;3.00;2.75;;;;;;;;5009448;28;47082;-84
2023/04/26 10:45:44;;;;;;;;;4.25;2.00;;;;;;;;5010732;28;45346;-82
2023/04/26 10:48:20;;;;;;;;;2.50;1.00;;;;;;;;5037354;28;45477;-83
2023/04/26 10:51:00;;;;;;;;;4.00;2.00;;;;;;;;5034943;28;45456;-85
2023/04/26 10:53:44;;;;;;;;;5.00;2.00;;;;;;;;5035330;28;46563;-84
2023/04/26 10:56:09;;;;;;;;;5.00;2.00;;;;;;;;5016992;28;45931;-83
2023/04/26 10:58:34;;;;;;;;;3.00;2.00;;;;;;;;5035178;28;45354;-82
2023/04/26 11:01:04;;;;;;;;;4.67;2.00;;;;;;;;5010408;28;45630;-83
2023/04/26 11:03:29;;;;;;;;;4.75;2.00;;;;;;;;5035981;28;45509;-85
2023/04/26 11:05:55;;;;;;;;;1.75;1.00;;;;;;;;5036891;28;45553;-82
2023/04/26 11:08:35;;;;;;;;;4.50;1.75;;;;;;;;5034971;28;45428;-86
2023/04/26 11:11:05;;;;;;;;;4.00;3.00;;;;;;;;5022440;28;45209;-88
2023/04/26 11:13:52;;;;;;;;;2.25;1.75;;;;;;;;5035525;28;45749;-91
2023/04/26 11:16:17;;;;;;;;;3.00;3.00;;;;;;;;5035346;28;45281;-85
2023/04/26 11:18:43;;;;;;;;;4.00;2.33;;;;;;;;5017805;28;45286;-89
2023/04/26 11:21:09;;;;;;;;;5.00;2.00;;;;;;;;5007438;28;45769;-85
2023/04/26 11:23:35;;;;;;;;;6.00;4.25;;;;;;;;5034593;28;46978;-86
2023/04/26 11:26:04;;;;;;;;;4.50;3.00;;;;;;;;5017623;28;45718;-85
2023/04/26 11:28:30;;;;;;;;;6.00;2.75;;;;;;;;5034749;28;45333;-85
2023/04/26 11:30:56;;;;;;;;;4.00;2.75;;;;;;;;5034906;28;45467;-89
2023/04/26 11:33:21;;;;;;;;;2.00;2.00;;;;;;;;5037500;28;45543;-87
2023/04/26 11:35:47;;;;;;;;;3.00;2.00;;;;;;;;5027528;28;45701;-87
2023/04/26 11:38:13;;;;;;;;;4.00;2.00;;;;;;;;5024789;28;45314;-88
2023/04/26 11:40:40;;;;;;;;;2.25;2.25;;;;;;;;5020713;28;45476;-88
2023/04/26 11:43:07;;;;;;;;;5.75;2.25;;;;;;;;5040566;28;47232;-86
2023/04/26 11:45:33;;;;;;;;;3.75;2.00;;;;;;;;5047856;28;45873;-82
2023/04/26 11:48:00;;;;;;;;;4.50;3.00;;;;;;;;5043861;28;45393;-86
2023/04/26 11:50:25;;;;;;;;;5.25;2.00;;;;;;;;5018715;28;45354;-84
2023/04/26 11:52:55;;;;;;;;;4.25;2.75;;;;;;;;5021990;28;47656;-82
2023/04/26 11:55:23;;;;;;;;;3.75;2.50;;;;;;;;5027725;28;46164;-82
2023/04/26 11:57:48;;;;;;;;;3.50;2.25;;;;;;;;5029326;28;46051;-82
2023/04/26 12:00:14;;;;;;;;;3.25;3.00;;;;;;;;5037018;28;45381;-82
2023/04/26 12:02:46;;;;;;;;;3.25;3.00;;;;;;;;5036978;28;45550;-83
2023/04/26 12:05:25;;;;;;;;;1.00;1.00;;;;;;;;5037629;28;45849;-81
2023/04/26 12:07:55;;;;;;;;;5.00;2.00;;;;;;;;5040450;28;45562;-86
2023/04/26 12:10:23;;;;;;;;;3.25;2.00;;;;;;;;5023441;28;45310;-85
2023/04/26 12:12:52;;;;;;;;;3.50;1.75;;;;;;;;5032636;28;45506;-83
2023/04/26 12:15:21;;;;;;;;;5.50;3.50;;;;;;;;5050919;28;45443;-83
2023/04/26 12:18:05;;;;;;;;;5.50;2.00;;;;;;;;5037377;28;45404;-83
2023/04/26 12:20:34;;;;;;;;;3.00;2.00;;;;;;;;5037513;28;45485;-83
2023/04/26 12:23:02;;;;;;;;;2.75;2.75;;;;;;;;5036724;28;46400;-84
2023/04/26 12:25:28;;;;;;;;;2.00;2.00;;;;;;;;5036996;28;45619;-83
2023/04/26 12:27:53;;;;;;;;;3.50;2.50;;;;;;;;5037266;28;45357;-83
2023/04/26 12:30:18;;;;;;;;;4.25;2.75;;;;;;;;5037405;28;45834;-83
2023/04/26 12:32:44;;;;;;;;;2.00;2.00;;;;;;;;5036869;28;45428;-83
2023/04/26 12:35:09;;;;;;;;;4.75;1.50;;;;;;;;5018425;28;45262;-83
2023/04/26 12:37:34;;;;;;;;;1.75;1.75;;;;;;;;5037477;28;45362;-84
2023/04/26 12:40:00;;;;;;;;;5.00;3.00;;;;;;;;5042283;28;45775;-84
2023/04/26 12:42:25;;;;;;;;;2.00;2.00;;;;;;;;5036940;28;47265;-84
2023/04/26 12:44:51;;;;;;;;;3.00;1.00;;;;;;;;5036143;28;45444;-84
2023/04/26 12:47:16;;;;;;;;;3.25;2.00;;;;;;;;5036980;28;45620;-84
2023/04/26 12:49:41;;;;;;;;;1.00;1.00;;;;;;;;5036254;28;45460;-84
2023/04/26 12:52:07;;;;;;;;;6.67;3.00;;;;;;;;5039863;28;45999;-84
2023/04/26 12:54:32;;;;;;;;;4.33;1.00;;;;;;;;5035871;28;45407;-83
2023/04/26 12:56:57;;;;;;;;;2.67;2.00;;;;;;;;5036952;28;45475;-84
2023/04/26 12:59:22;;;;;;;;;1.33;1.33;;;;;;;;5018261;28;45642;-83
2023/04/26 13:01:47;;;;;;;;;4.67;1.67;;;;;;;;5035927;28;46467;-85
2023/04/26 13:04:13;;;;;;;;;3.33;2.00;;;;;;;;5035824;28;45544;-84
2023/04/26 13:06:39;;;;;;;;;6.00;3.00;;;;;;;;5035955;28;45544;-82
2023/04/26 13:09:06;;;;;;;;;4.00;2.75;;;;;;;;5035712;28;45555;-83
2023/04/26 13:11:32;;;;;;;;;3.00;1.00;;;;;;;;5037100;28;45422;-83
2023/04/26 13:13:57;;;;;;;;;3.00;1.00;;;;;;;;5036193;28;45385;-82
2023/04/26 13:16:22;;;;;;;;;5.33;1.67;;;;;;;;5036359;28;45430;-83
2023/04/26 13:18:47;;;;;;;;;4.00;2.00;;;;;;;;5017516;28;45644;-83
2023/04/26 13:21:12;;;;;;;;;2.33;2.33;;;;;;;;5035745;28;45413;-82
2023/04/26 13:23:38;;;;;;;;;2.00;2.00;;;;;;;;5035485;28;45475;-83
2023/04/26 13:26:03;;;;;;;;;4.67;2.33;;;;;;;;5038476;28;46800;-84
2023/04/26 13:28:28;;;;;;;;;4.00;2.75;;;;;;;;5035636;28;45607;-84
2023/04/26 13:30:54;;;;;;;;;2.33;2.00;;;;;;;;5036048;28;46187;-84
2023/04/26 13:33:19;;;;;;;;;3.25;2.00;;;;;;;;5038904;28;45411;-83
2023/04/26 13:35:45;;;;;;;;;2.00;2.00;;;;;;;;5035201;28;45317;-84
2023/04/26 13:38:11;;;;;;;;;3.00;1.00;;;;;;;;5017285;28;45575;-83
2023/04/26 13:40:36;;;;;;;;;2.25;2.00;;;;;;;;5035544;28;46514;-84
2023/04/26 13:43:02;;;;;;;;;3.25;1.50;;;;;;;;5035776;28;45375;-84
2023/04/26 13:45:27;;;;;;;;;4.00;2.33;;;;;;;;5027991;28;45456;-84
2023/04/26 13:47:52;;;;;;;;;5.00;1.00;;;;;;;;5035629;28;45436;-84
2023/04/26 13:50:17;;;;;;;;;4.33;1.67;;;;;;;;5017508;28;47367;-84
2023/04/26 13:52:43;;;;;;;;;4.00;3.00;;;;;;;;5018124;28;45428;-84
2023/04/26 13:55:08;;;;;;;;;4.33;2.00;;;;;;;;5042623;28;45473;-83
2023/04/26 13:57:33;;;;;;;;;3.50;2.25;;;;;;;;5034868;28;45550;-84
2023/04/26 13:59:58;;;;;;;;;2.67;2.00;;;;;;;;5035846;28;46213;-83
2023/04/26 14:02:23;;;;;;;;;6.67;3.67;;;;;;;;5017497;28;45931;-82
2023/04/26 14:04:49;;;;;;;;;3.00;3.00;;;;;;;;5017486;28;45900;-83
2023/04/26 14:07:14;;;;;;;;;2.67;2.00;;;;;;;;5034398;28;45708;-83
2023/04/26 14:09:40;;;;;;;;;3.50;2.00;;;;;;;;5035359;28;45418;-83
2023/04/26 14:12:05;;;;;;;;;3.00;2.00;;;;;;;;5034547;28;45457;-83
2023/04/26 14:14:30;;;;;;;;;2.50;2.00;;;;;;;;5033216;28;45456;-82
2023/04/26 14:16:56;;;;;;;;;4.33;3.00;;;;;;;;5032446;28;45350;-83
2023/04/26 14:19:21;;;;;;;;;3.00;2.00;;;;;;;;5035399;28;45443;-82
2023/04/26 14:21:46;;;;;;;;;2.25;1.50;;;;;;;;5034326;28;45544;-83
2023/04/26 14:24:12;;;;;;;;;6.33;3.00;;;;;;;;5016953;28;46765;-84
2023/04/26 14:26:37;;;;;;;;;3.50;2.00;;;;;;;;5035413;28;45285;-83
2023/04/26 14:29:03;;;;;;;;;3.00;2.00;;;;;;;;5034740;28;46313;-83
2023/04/26 14:31:30;;;;;;;;;1.75;1.75;;;;;;;;5033899;28;45371;-83
2023/04/26 14:33:56;;;;;;;;;4.00;2.50;;;;;;;;5035692;28;45290;-83
2023/04/26 14:36:21;;;;;;;;;3.00;2.00;;;;;;;;5035321;28;45569;-83
2023/04/26 14:38:46;;;;;;;;;8.00;2.00;;;;;;;;5022012;28;47286;-83